KSLO/SLO METAR and TAF weather

Enter ICAO airport designator
Station Type Date Time Source
KSLO METAR 2020/01/20 10:15 UTC NOAA

KSLO 201015Z AUTO 32006KT 10SM -SN OVC013 M09/M12 A3056 RMK AO2 T10921118


Station Type Date Time Source
KSLO Decoded METAR 2020/01/20 10:15 UTC NOAA

Salem, Salem-Leckrone Airport, IL, United States (KSLO) 38-38-34N 088-57-51W 174M
Jan 20, 2020 - 05:15 AM EST / 2020.01.20 1015 UTC
Wind: from the NW (320 degrees) at 7 MPH (6 KT):0
Visibility: 10 mile(s):0
Sky conditions: overcast
Weather: light snow
Temperature: 15.4 F (-9.2 C)
Windchill: 5 F (-15 C):1
Dew Point: 10.8 F (-11.8 C)
Relative Humidity: 81%
Pressure (altimeter): 30.56 in. Hg (1034 hPa)
ob: KSLO 201015Z AUTO 32006KT 10SM -SN OVC013 M09/M12 A3056 RMK AO2 T10921118
cycle: 10

Station Type Date Time Source
KSLO TAF UTC NOAA

Error!

Example: see airport list